Time;durP1;ratioP1;P1;durP2;ratioP2;P2;SDS_P1;SDS_P2;PMS_P1;PMS_P2;Temp;Humidity;BMP_temperature;BMP_pressure;BME280_temperature;BME280_humidity;BME280_pressure;Samples;Min_cycle;Max_cycle;Signal;HPM_P1;HPM_P2
2021/01/08 00:02:16;;;;;;;13.70;9.67;;;3.20;99.90;;;;;;5052894;28;21001;-72
2021/01/08 00:04:42;;;;;;;13.40;9.30;;;3.10;99.90;;;;;;5057201;28;20412;-72
2021/01/08 00:07:08;;;;;;;12.20;8.77;;;3.10;99.90;;;;;;5055473;28;20190;-72
2021/01/08 00:09:34;;;;;;;11.33;8.90;;;3.20;99.90;;;;;;5057389;28;20413;-72
2021/01/08 00:11:59;;;;;;;10.80;8.50;;;3.20;99.90;;;;;;5056845;28;20436;-72
2021/01/08 00:14:25;;;;;;;10.17;8.17;;;3.20;99.90;;;;;;5056161;28;20170;-73
2021/01/08 00:16:50;;;;;;;10.73;7.90;;;3.30;99.90;;;;;;5050486;28;20207;-74
2021/01/08 00:19:16;;;;;;;11.63;8.63;;;3.30;99.90;;;;;;5042996;28;20225;-74
2021/01/08 00:21:42;;;;;;;10.77;7.60;;;3.30;99.90;;;;;;5060358;28;20186;-74
2021/01/08 00:24:12;;;;;;;12.53;8.53;;;3.30;99.90;;;;;;5043485;28;20179;-74
2021/01/08 00:26:39;;;;;;;10.57;7.93;;;3.30;99.90;;;;;;5037438;28;20429;-73
2021/01/08 00:29:06;;;;;;;10.97;8.47;;;3.30;99.90;;;;;;5048772;28;20424;-73
2021/01/08 00:31:49;;;;;;;10.03;7.20;;;3.30;99.90;;;;;;5052737;28;20414;-73
2021/01/08 00:34:17;;;;;;;7.80;6.90;;;3.40;99.90;;;;;;5036791;28;20524;-73
2021/01/08 00:36:51;;;;;;;9.37;6.97;;;3.10;99.90;;;;;;5037173;28;21025;-73
2021/01/08 00:39:17;;;;;;;7.80;6.37;;;3.10;99.90;;;;;;5038198;28;20422;-73
2021/01/08 00:41:43;;;;;;;9.80;6.90;;;3.10;99.90;;;;;;5037805;28;20406;-73
2021/01/08 00:44:08;;;;;;;9.60;7.13;;;3.20;99.90;;;;;;5040407;28;20425;-73
2021/01/08 00:46:39;;;;;;;8.30;6.90;;;3.20;99.90;;;;;;5041669;28;20594;-73
2021/01/08 00:49:06;;;;;;;10.07;7.50;;;3.20;99.90;;;;;;5039209;28;20183;-73
2021/01/08 00:51:32;;;;;;;10.77;7.70;;;3.20;99.90;;;;;;5056996;28;20435;-73
2021/01/08 00:53:58;;;;;;;10.90;7.20;;;3.20;99.90;;;;;;5056723;28;20424;-73
2021/01/08 00:56:24;;;;;;;9.63;6.80;;;3.20;99.90;;;;;;5056862;28;20440;-73
2021/01/08 00:58:50;;;;;;;8.70;7.43;;;3.20;99.90;;;;;;5056443;28;20175;-73
2021/01/08 01:01:16;;;;;;;8.67;7.37;;;3.10;99.90;;;;;;5046611;28;20175;-73
2021/01/08 01:03:42;;;;;;;9.27;7.07;;;3.20;99.90;;;;;;5036402;28;20199;-73
2021/01/08 01:06:08;;;;;;;8.70;7.20;;;3.20;99.90;;;;;;5036716;28;20547;-73
2021/01/08 01:08:33;;;;;;;8.10;6.63;;;3.20;99.90;;;;;;5037127;28;20250;-73
2021/01/08 01:10:59;;;;;;;7.67;6.23;;;3.20;99.90;;;;;;5044638;28;20191;-73
2021/01/08 01:13:25;;;;;;;8.07;6.27;;;3.20;99.90;;;;;;5056768;28;20182;-73
2021/01/08 01:15:51;;;;;;;7.80;6.63;;;3.30;99.90;;;;;;5054770;28;20457;-73
2021/01/08 01:18:17;;;;;;;8.50;7.10;;;3.20;99.90;;;;;;5037766;28;20186;-73
2021/01/08 01:20:42;;;;;;;9.57;7.23;;;3.20;99.90;;;;;;5037435;28;20438;-73
2021/01/08 01:23:08;;;;;;;7.80;6.13;;;3.20;99.90;;;;;;5036168;28;20460;-73
2021/01/08 01:25:34;;;;;;;9.90;7.20;;;3.20;99.90;;;;;;5052073;28;20194;-73
2021/01/08 01:28:00;;;;;;;8.93;7.47;;;3.20;99.90;;;;;;5056023;28;20179;-73
2021/01/08 01:30:26;;;;;;;9.80;7.70;;;3.30;99.90;;;;;;5057274;28;20409;-73
2021/01/08 01:32:52;;;;;;;9.30;6.60;;;3.20;99.90;;;;;;5042202;28;20211;-73
2021/01/08 01:35:17;;;;;;;9.47;7.00;;;3.30;99.90;;;;;;5034522;28;20434;-73
2021/01/08 01:37:43;;;;;;;8.93;7.10;;;3.30;99.90;;;;;;5036778;28;20258;-73
2021/01/08 01:40:09;;;;;;;8.20;7.30;;;3.30;99.90;;;;;;5038025;28;20191;-72
2021/01/08 01:42:34;;;;;;;9.57;7.23;;;3.30;99.90;;;;;;5048136;28;20566;-73
2021/01/08 01:45:00;;;;;;;9.03;6.70;;;3.30;99.90;;;;;;5035978;28;20410;-73
2021/01/08 01:47:27;;;;;;;8.63;7.20;;;3.40;99.90;;;;;;5056129;28;20201;-73
2021/01/08 01:49:53;;;;;;;8.83;7.03;;;3.40;99.90;;;;;;5054843;28;20186;-73
2021/01/08 01:52:19;;;;;;;8.33;6.00;;;3.40;99.90;;;;;;5043415;28;20501;-73
2021/01/08 01:54:45;;;;;;;10.00;6.90;;;3.40;99.90;;;;;;5038083;28;20847;-73
2021/01/08 01:57:10;;;;;;;10.37;7.57;;;3.40;99.90;;;;;;5053442;28;20429;-73
2021/01/08 01:59:36;;;;;;;9.00;7.10;;;3.40;99.90;;;;;;5052430;28;20240;-73
2021/01/08 02:02:07;;;;;;;9.47;6.87;;;3.40;99.90;;;;;;5036369;28;20211;-73
2021/01/08 02:04:34;;;;;;;9.77;7.07;;;3.40;99.90;;;;;;5033945;28;20175;-73
2021/01/08 02:07:01;;;;;;;8.17;6.40;;;3.40;99.90;;;;;;5047935;28;20814;-73
2021/01/08 02:09:27;;;;;;;6.97;6.20;;;3.40;99.90;;;;;;5055644;28;20412;-73
2021/01/08 02:11:55;;;;;;;9.63;6.50;;;3.30;99.90;;;;;;5052282;28;20439;-73
2021/01/08 02:14:27;;;;;;;8.53;6.30;;;3.30;99.90;;;;;;5054842;28;20440;-73
2021/01/08 02:16:53;;;;;;;9.03;6.37;;;3.30;99.90;;;;;;5055289;28;20456;-73
2021/01/08 02:19:25;;;;;;;8.27;6.57;;;3.30;99.90;;;;;;5055246;28;20921;-73
2021/01/08 02:22:04;;;;;;;9.20;6.33;;;3.30;99.90;;;;;;5047996;28;20185;-73
2021/01/08 02:24:39;;;;;;;9.00;6.60;;;3.30;99.90;;;;;;5055000;28;20436;-73
2021/01/08 02:27:04;;;;;;;11.03;7.20;;;3.30;99.90;;;;;;5054938;28;20459;-73
2021/01/08 02:29:31;;;;;;;9.23;6.57;;;3.40;99.90;;;;;;5055313;28;20401;-73
2021/01/08 02:31:57;;;;;;;6.50;5.67;;;3.30;99.90;;;;;;5023725;28;20187;-73
2021/01/08 02:34:24;;;;;;;8.90;6.47;;;3.30;99.90;;;;;;5042151;28;20453;-73
2021/01/08 02:36:50;;;;;;;7.93;6.13;;;3.40;99.90;;;;;;5035007;28;20434;-73
2021/01/08 02:39:16;;;;;;;8.30;5.83;;;3.40;99.90;;;;;;5067121;28;20437;-73
2021/01/08 02:41:44;;;;;;;7.50;5.87;;;3.40;99.90;;;;;;5039934;28;20514;-73
2021/01/08 02:44:14;;;;;;;8.17;6.00;;;3.40;99.90;;;;;;5041483;28;20185;-73
2021/01/08 02:46:40;;;;;;;9.00;6.70;;;3.50;99.90;;;;;;5040412;28;20464;-73
2021/01/08 02:49:06;;;;;;;6.67;5.30;;;3.50;99.90;;;;;;5055111;28;20408;-73
2021/01/08 02:51:32;;;;;;;9.13;6.93;;;3.40;99.90;;;;;;5055719;28;20439;-73
2021/01/08 02:53:58;;;;;;;8.10;6.47;;;3.50;99.90;;;;;;5054390;28;20184;-73
2021/01/08 02:56:31;;;;;;;9.33;7.10;;;3.50;99.90;;;;;;5055349;28;20460;-73
2021/01/08 02:58:57;;;;;;;10.50;7.47;;;3.50;99.90;;;;;;5055823;28;20436;-73
2021/01/08 03:01:24;;;;;;;8.43;6.60;;;3.50;99.90;;;;;;5070603;28;20464;-73
2021/01/08 03:03:49;;;;;;;7.87;6.27;;;3.50;99.90;;;;;;5070154;28;20452;-73
2021/01/08 03:06:16;;;;;;;10.10;7.10;;;3.50;99.90;;;;;;5055546;28;20452;-73
2021/01/08 03:08:41;;;;;;;9.90;7.07;;;3.40;99.90;;;;;;5073331;28;20168;-74
2021/01/08 03:11:11;;;;;;;9.50;7.43;;;3.40;99.90;;;;;;5073494;28;20410;-73
2021/01/08 03:13:38;;;;;;;11.93;7.83;;;3.40;99.90;;;;;;5044577;28;20236;-73
2021/01/08 03:16:05;;;;;;;12.43;8.33;;;3.40;99.90;;;;;;5036075;28;20446;-73
2021/01/08 03:18:31;;;;;;;12.00;8.00;;;3.30;99.90;;;;;;5034651;28;20406;-73
2021/01/08 03:20:56;;;;;;;13.77;9.27;;;3.10;99.90;;;;;;5033438;28;20425;-73
2021/01/08 03:23:22;;;;;;;12.87;8.60;;;2.90;99.90;;;;;;5054636;28;20205;-73
2021/01/08 03:25:47;;;;;;;11.77;8.30;;;2.80;99.90;;;;;;5053030;28;20194;-73
2021/01/08 03:28:13;;;;;;;12.57;8.07;;;2.70;99.90;;;;;;5054708;28;20198;-73
2021/01/08 03:30:38;;;;;;;10.97;7.90;;;2.70;99.90;;;;;;5053979;28;20637;-73
2021/01/08 03:33:04;;;;;;;15.20;9.63;;;2.70;99.90;;;;;;5054823;28;20605;-73
2021/01/08 03:35:29;;;;;;;12.23;8.73;;;2.70;99.90;;;;;;5051561;28;20201;-73
2021/01/08 03:37:55;;;;;;;15.77;9.40;;;2.70;99.90;;;;;;5044065;28;20186;-73
2021/01/08 03:40:20;;;;;;;13.97;8.97;;;2.80;99.90;;;;;;5037251;28;20191;-73
2021/01/08 03:42:46;;;;;;;13.67;8.60;;;2.90;99.90;;;;;;5034695;28;20210;-74
2021/01/08 03:45:11;;;;;;;15.37;10.47;;;3.00;99.90;;;;;;5034471;28;20171;-74
2021/01/08 03:47:37;;;;;;;13.30;9.17;;;3.00;99.90;;;;;;5034806;28;20190;-73
2021/01/08 03:50:03;;;;;;;13.03;8.83;;;3.10;99.90;;;;;;5034868;28;20211;-73
2021/01/08 03:52:28;;;;;;;15.73;9.50;;;3.20;99.90;;;;;;5047859;28;20206;-73
2021/01/08 03:54:54;;;;;;;11.20;7.93;;;3.20;99.90;;;;;;5053418;28;20926;-73
2021/01/08 03:57:20;;;;;;;12.37;9.17;;;3.20;99.90;;;;;;5052879;28;20209;-73
2021/01/08 03:59:45;;;;;;;14.70;9.20;;;3.20;99.90;;;;;;5054821;28;20222;-73
2021/01/08 04:02:11;;;;;;;16.10;10.10;;;3.20;99.90;;;;;;5042831;28;20457;-74
2021/01/08 04:04:36;;;;;;;13.63;9.40;;;3.30;99.90;;;;;;5034978;28;20285;-73
2021/01/08 04:07:02;;;;;;;14.27;9.63;;;3.30;99.90;;;;;;5033888;28;20244;-73
2021/01/08 04:09:28;;;;;;;13.90;9.73;;;3.40;99.90;;;;;;5034485;28;20167;-74
2021/01/08 04:11:53;;;;;;;14.83;9.73;;;3.40;99.90;;;;;;5046543;28;20281;-74
2021/01/08 04:14:19;;;;;;;14.20;8.67;;;3.40;99.90;;;;;;5053907;28;20702;-74
2021/01/08 04:16:44;;;;;;;13.30;8.50;;;3.40;99.90;;;;;;5053895;28;20221;-73
2021/01/08 04:19:11;;;;;;;15.30;9.67;;;3.40;99.90;;;;;;5055497;28;20174;-73
2021/01/08 04:21:37;;;;;;;17.43;10.40;;;3.40;99.90;;;;;;5056077;28;20186;-73
2021/01/08 04:24:03;;;;;;;15.20;10.20;;;3.40;99.90;;;;;;5058286;28;20452;-73
2021/01/08 04:26:28;;;;;;;15.80;9.50;;;3.30;99.90;;;;;;5057212;28;20947;-73
2021/01/08 04:28:54;;;;;;;15.30;10.20;;;3.30;99.90;;;;;;5058154;28;20415;-73
2021/01/08 04:31:20;;;;;;;16.60;10.70;;;3.30;99.90;;;;;;5056242;28;20178;-73
2021/01/08 04:33:46;;;;;;;16.50;10.20;;;3.40;99.90;;;;;;5056974;28;20237;-73
2021/01/08 04:36:12;;;;;;;14.20;8.90;;;3.40;99.90;;;;;;5053734;28;20228;-73
2021/01/08 04:38:38;;;;;;;14.83;9.40;;;3.40;99.90;;;;;;5038018;28;20590;-73
2021/01/08 04:41:05;;;;;;;13.77;9.37;;;3.40;99.90;;;;;;5038396;28;20581;-73
2021/01/08 04:43:31;;;;;;;12.67;8.43;;;3.40;99.90;;;;;;5055741;28;20459;-73
2021/01/08 04:46:21;;;;;;;13.30;7.90;;;3.40;99.90;;;;;;5057551;28;20448;-73
2021/01/08 04:48:48;;;;;;;15.30;9.13;;;3.40;99.90;;;;;;5056701;28;20440;-73
2021/01/08 04:51:15;;;;;;;12.20;9.20;;;3.40;99.90;;;;;;5057186;28;20430;-73
2021/01/08 04:53:41;;;;;;;12.77;8.33;;;3.40;99.90;;;;;;5043159;28;20890;-73
2021/01/08 04:56:09;;;;;;;15.40;8.90;;;3.40;99.90;;;;;;5037166;28;20471;-73
2021/01/08 04:58:35;;;;;;;13.50;9.50;;;3.40;99.90;;;;;;5037197;28;20205;-73
2021/01/08 05:01:02;;;;;;;15.77;9.73;;;3.40;99.90;;;;;;5038406;28;20433;-73
2021/01/08 05:03:31;;;;;;;17.30;9.43;;;3.40;99.90;;;;;;5039234;28;20492;-73
2021/01/08 05:05:57;;;;;;;14.07;9.70;;;3.50;99.90;;;;;;5037020;28;20436;-73
2021/01/08 05:08:23;;;;;;;14.03;9.57;;;3.40;99.90;;;;;;5036673;28;20401;-73
2021/01/08 05:10:50;;;;;;;13.07;8.03;;;3.40;99.90;;;;;;5036749;28;20888;-73
2021/01/08 05:13:16;;;;;;;13.77;8.60;;;3.40;99.90;;;;;;5054986;28;20428;-73
2021/01/08 05:15:52;;;;;;;14.63;9.33;;;3.40;99.90;;;;;;5055416;28;20556;-73
2021/01/08 05:18:20;;;;;;;12.87;8.93;;;3.40;99.90;;;;;;5056307;28;20519;-73
2021/01/08 05:20:50;;;;;;;12.50;8.60;;;3.40;99.90;;;;;;5056571;28;20424;-73
2021/01/08 05:23:16;;;;;;;14.43;9.07;;;3.50;99.90;;;;;;5016864;28;20485;-73
2021/01/08 05:25:45;;;;;;;14.87;9.40;;;3.50;99.90;;;;;;5047330;28;20944;-73
2021/01/08 05:28:11;;;;;;;13.00;9.10;;;3.50;99.90;;;;;;5056680;28;20162;-73
2021/01/08 05:30:37;;;;;;;14.33;9.53;;;3.50;99.90;;;;;;5040321;28;20419;-73
2021/01/08 05:33:05;;;;;;;16.57;9.07;;;3.50;99.90;;;;;;5036315;28;20198;-73
2021/01/08 05:35:33;;;;;;;16.00;10.40;;;3.50;99.90;;;;;;5037824;28;20515;-73
2021/01/08 05:38:05;;;;;;;11.70;7.77;;;3.40;99.90;;;;;;5036527;28;20430;-73
2021/01/08 05:40:31;;;;;;;12.53;8.33;;;3.40;99.90;;;;;;5036054;28;20417;-73
2021/01/08 05:43:01;;;;;;;13.77;8.83;;;3.40;99.90;;;;;;5051828;28;20974;-73
2021/01/08 05:45:29;;;;;;;11.17;8.20;;;3.40;99.90;;;;;;5052117;28;20491;-73
2021/01/08 05:47:59;;;;;;;13.53;8.60;;;3.50;99.90;;;;;;5036065;28;20406;-73
2021/01/08 05:50:28;;;;;;;14.33;9.40;;;3.50;99.90;;;;;;5041568;28;20417;-73
2021/01/08 05:53:14;;;;;;;12.73;9.30;;;3.50;99.90;;;;;;5063156;28;20436;-73
2021/01/08 05:55:41;;;;;;;14.40;9.07;;;3.40;99.90;;;;;;5063817;28;20952;-74
2021/01/08 05:58:23;;;;;;;13.77;8.90;;;3.40;99.90;;;;;;5058794;28;20446;-73
2021/01/08 06:00:55;;;;;;;14.10;9.70;;;3.30;99.90;;;;;;5034705;28;20528;-73
2021/01/08 06:03:22;;;;;;;12.90;8.67;;;3.20;99.90;;;;;;5054902;28;20606;-73
2021/01/08 06:05:52;;;;;;;13.40;8.47;;;3.20;99.90;;;;;;5054894;28;20807;-73
2021/01/08 06:08:20;;;;;;;13.37;8.80;;;3.30;99.90;;;;;;5054794;28;20427;-73
2021/01/08 06:10:51;;;;;;;13.37;8.33;;;3.30;99.90;;;;;;5054188;28;20460;-73
2021/01/08 06:13:19;;;;;;;11.57;7.80;;;3.30;99.90;;;;;;5054825;28;20428;-73
2021/01/08 06:15:46;;;;;;;12.50;8.00;;;3.40;99.90;;;;;;5053464;28;20448;-72
2021/01/08 06:18:14;;;;;;;10.10;7.07;;;3.30;99.90;;;;;;5052844;28;20424;-73
2021/01/08 06:20:40;;;;;;;14.43;8.83;;;3.40;99.90;;;;;;5055524;28;20408;-73
2021/01/08 06:23:06;;;;;;;12.97;8.90;;;3.40;99.90;;;;;;5053417;28;20465;-73
2021/01/08 06:25:33;;;;;;;15.00;8.70;;;3.40;99.90;;;;;;5052691;28;20448;-73
2021/01/08 06:28:03;;;;;;;12.80;8.63;;;3.50;99.90;;;;;;5054904;28;20174;-73
2021/01/08 06:30:33;;;;;;;12.27;8.07;;;3.40;99.90;;;;;;5053399;28;20448;-74
2021/01/08 06:33:04;;;;;;;13.23;8.57;;;3.50;99.90;;;;;;5041617;28;20507;-73
2021/01/08 06:35:33;;;;;;;11.77;8.70;;;3.50;99.90;;;;;;5033140;28;20825;-73
2021/01/08 06:37:59;;;;;;;13.53;8.43;;;3.50;99.90;;;;;;5033408;28;20457;-73
2021/01/08 06:40:48;;;;;;;12.97;8.33;;;3.40;99.90;;;;;;5046904;28;20452;-73
2021/01/08 06:43:18;;;;;;;13.47;8.33;;;3.40;99.90;;;;;;5060042;28;20460;-73
2021/01/08 06:45:54;;;;;;;13.03;8.17;;;3.50;99.90;;;;;;5039768;28;20773;-73
2021/01/08 06:48:23;;;;;;;13.77;8.83;;;3.40;99.90;;;;;;5071068;28;20405;-74
2021/01/08 06:50:52;;;;;;;12.80;8.60;;;3.40;99.90;;;;;;5039818;28;20864;-73
2021/01/08 06:53:23;;;;;;;13.53;9.27;;;3.40;99.90;;;;;;5059848;28;20580;-73
2021/01/08 06:55:54;;;;;;;17.20;8.70;;;3.40;99.90;;;;;;5053057;28;20445;-73
2021/01/08 06:58:20;;;;;;;13.00;8.67;;;3.40;99.90;;;;;;5034907;28;20409;-73
2021/01/08 07:00:51;;;;;;;14.20;9.93;;;3.40;99.90;;;;;;5034117;28;20488;-73
2021/01/08 07:03:19;;;;;;;15.60;9.00;;;3.50;99.90;;;;;;5033363;28;20477;-73
2021/01/08 07:05:46;;;;;;;14.10;8.63;;;3.50;99.90;;;;;;5033160;28;20452;-73
2021/01/08 07:08:12;;;;;;;14.47;9.63;;;3.60;99.90;;;;;;5033975;28;20452;-73
2021/01/08 07:10:38;;;;;;;14.37;9.37;;;3.50;99.90;;;;;;5033559;28;20418;-73
2021/01/08 07:13:03;;;;;;;15.50;9.03;;;3.60;99.90;;;;;;5035083;28;20251;-72
2021/01/08 07:15:32;;;;;;;13.90;9.33;;;3.50;99.90;;;;;;5037565;28;20281;-72
2021/01/08 07:17:58;;;;;;;12.77;8.47;;;3.50;99.90;;;;;;5049917;28;20189;-72
2021/01/08 07:20:24;;;;;;;14.60;9.07;;;3.50;99.90;;;;;;5046397;28;20446;-72
2021/01/08 07:22:55;;;;;;;14.07;9.03;;;3.40;99.90;;;;;;5039612;28;20484;-73
2021/01/08 07:25:24;;;;;;;13.33;7.70;;;3.30;99.90;;;;;;5032715;28;20199;-73
2021/01/08 07:27:50;;;;;;;11.40;7.33;;;3.30;99.90;;;;;;5027820;28;20429;-73
2021/01/08 07:30:17;;;;;;;13.87;8.07;;;3.20;99.90;;;;;;5036202;28;20429;-73
2021/01/08 07:32:50;;;;;;;13.77;9.47;;;3.30;99.90;;;;;;5035790;28;20422;-74
2021/01/08 07:35:29;;;;;;;14.60;8.67;;;3.30;99.90;;;;;;5037436;28;20449;-74
2021/01/08 07:38:05;;;;;;;10.80;8.23;;;3.40;99.90;;;;;;5035904;28;20456;-74
2021/01/08 07:40:39;;;;;;;12.60;7.83;;;3.40;99.90;;;;;;5035955;28;20812;-73
2021/01/08 07:43:09;;;;;;;14.70;9.47;;;3.50;99.90;;;;;;5038513;28;20457;-73
2021/01/08 07:45:56;;;;;;;12.37;7.90;;;3.50;99.90;;;;;;5035467;28;20490;-73
2021/01/08 07:48:27;;;;;;;12.10;7.70;;;3.50;99.90;;;;;;5034887;28;20848;-73
2021/01/08 07:51:12;;;;;;;14.70;8.40;;;3.50;99.90;;;;;;5035418;28;20804;-73
2021/01/08 07:53:37;;;;;;;13.13;8.00;;;3.50;99.90;;;;;;5035377;28;20432;-74
2021/01/08 07:56:04;;;;;;;13.63;8.73;;;3.50;99.90;;;;;;5051487;28;20462;-74
2021/01/08 07:58:30;;;;;;;14.53;9.07;;;3.50;99.90;;;;;;5045901;28;20638;-74
2021/01/08 08:00:57;;;;;;;14.23;8.13;;;3.50;99.90;;;;;;5036540;28;20791;-73
2021/01/08 08:03:24;;;;;;;12.77;8.37;;;3.50;99.90;;;;;;5039326;28;20787;-73
2021/01/08 08:05:51;;;;;;;12.83;8.27;;;3.60;99.90;;;;;;5036444;28;20584;-73
2021/01/08 08:08:17;;;;;;;13.23;8.70;;;3.60;99.90;;;;;;5048425;28;20425;-73
2021/01/08 08:10:43;;;;;;;12.73;8.53;;;3.60;99.90;;;;;;5036574;28;20496;-73
2021/01/08 08:13:12;;;;;;;13.33;8.53;;;3.50;99.90;;;;;;5036639;28;20460;-73
2021/01/08 08:15:46;;;;;;;12.40;8.20;;;3.60;99.90;;;;;;5036505;28;20282;-74
2021/01/08 08:18:12;;;;;;;11.87;7.70;;;3.60;99.90;;;;;;5038678;28;20456;-73
2021/01/08 08:20:38;;;;;;;11.37;7.60;;;3.70;99.90;;;;;;5054402;28;20466;-73
2021/01/08 08:23:14;;;;;;;14.10;8.37;;;3.70;99.90;;;;;;5036334;28;20206;-74
2021/01/08 08:25:40;;;;;;;13.93;7.20;;;3.80;99.90;;;;;;5046467;28;20557;-74
2021/01/08 08:28:06;;;;;;;10.67;6.70;;;3.80;99.90;;;;;;5036337;28;20420;-74
2021/01/08 08:30:32;;;;;;;13.40;8.20;;;3.90;99.90;;;;;;5036631;28;20441;-74
2021/01/08 08:32:59;;;;;;;14.33;8.73;;;3.90;99.90;;;;;;5036837;28;20199;-74
2021/01/08 08:35:24;;;;;;;14.40;7.23;;;3.90;99.90;;;;;;5035993;28;20426;-74
2021/01/08 08:37:57;;;;;;;11.40;7.23;;;3.90;99.90;;;;;;5045058;28;20541;-73
2021/01/08 08:40:24;;;;;;;10.73;7.20;;;4.00;99.90;;;;;;5037886;28;20186;-74
2021/01/08 08:42:52;;;;;;;15.77;7.30;;;4.00;99.90;;;;;;5036282;28;20467;-73
2021/01/08 08:45:19;;;;;;;13.67;8.17;;;4.00;99.90;;;;;;5035515;28;20796;-74
2021/01/08 08:47:50;;;;;;;10.60;7.37;;;4.10;99.90;;;;;;5035726;28;20419;-74
2021/01/08 08:50:17;;;;;;;12.80;8.00;;;4.10;99.90;;;;;;5043664;28;20577;-74
2021/01/08 08:52:44;;;;;;;10.70;6.80;;;4.10;99.90;;;;;;5032329;28;20591;-74
2021/01/08 08:55:25;;;;;;;9.70;6.60;;;3.90;99.90;;;;;;5039330;28;20512;-74
2021/01/08 08:58:04;;;;;;;9.83;7.30;;;3.90;99.90;;;;;;5020804;28;20930;-74
2021/01/08 09:00:30;;;;;;;12.80;8.00;;;4.00;99.90;;;;;;5045023;28;20832;-74
2021/01/08 09:02:56;;;;;;;8.53;6.70;;;3.90;99.90;;;;;;5041839;28;20488;-74
2021/01/08 09:05:29;;;;;;;10.57;6.23;;;3.90;99.90;;;;;;5035159;28;20450;-73
2021/01/08 09:08:02;;;;;;;9.93;6.77;;;3.90;99.90;;;;;;5035053;28;20177;-74
2021/01/08 09:10:35;;;;;;;11.40;6.60;;;4.00;99.90;;;;;;5036720;28;20416;-74
2021/01/08 09:13:31;;;;;;;8.27;6.13;;;4.10;99.90;;;;;;5035517;28;20436;-74
2021/01/08 09:16:11;;;;;;;7.70;6.10;;;4.10;99.90;;;;;;5020666;28;20528;-74
2021/01/08 09:19:02;;;;;;;8.50;5.60;;;4.00;99.90;;;;;;5026447;28;20436;-74
2021/01/08 09:21:32;;;;;;;7.33;5.67;;;4.00;99.90;;;;;;5043073;28;20435;-74
2021/01/08 09:24:03;;;;;;;8.70;5.20;;;4.10;99.90;;;;;;5035292;28;20460;-74
2021/01/08 09:26:30;;;;;;;7.00;4.97;;;4.10;99.90;;;;;;5039287;28;20451;-74
2021/01/08 09:28:56;;;;;;;8.93;6.10;;;4.20;99.90;;;;;;5041244;28;20413;-74
2021/01/08 09:31:41;;;;;;;9.20;6.60;;;4.10;99.90;;;;;;5037097;28;20418;-73
2021/01/08 09:34:07;;;;;;;9.17;6.40;;;4.10;99.90;;;;;;5034759;28;20437;-73
2021/01/08 09:36:35;;;;;;;11.70;6.60;;;4.10;99.90;;;;;;5040592;28;21030;-74
2021/01/08 09:39:09;;;;;;;6.97;5.53;;;4.10;99.90;;;;;;5041159;28;20421;-74
2021/01/08 09:41:36;;;;;;;8.83;5.30;;;4.10;99.90;;;;;;5035489;28;20509;-74
2021/01/08 09:44:04;;;;;;;8.67;6.33;;;4.10;99.90;;;;;;5054922;28;20456;-74
2021/01/08 09:46:29;;;;;;;7.83;5.83;;;3.90;99.90;;;;;;5044701;28;20439;-74
2021/01/08 09:49:05;;;;;;;8.03;6.27;;;3.90;99.90;;;;;;5034933;28;20427;-73
2021/01/08 09:51:31;;;;;;;9.57;6.80;;;3.80;99.90;;;;;;5042681;28;20644;-74
2021/01/08 09:53:57;;;;;;;7.70;5.80;;;3.60;99.90;;;;;;5034683;28;20418;-73
2021/01/08 09:56:23;;;;;;;7.57;5.50;;;3.40;99.90;;;;;;5050415;28;20472;-74
2021/01/08 09:59:17;;;;;;;7.80;5.63;;;3.40;99.90;;;;;;5041904;28;20270;-74
2021/01/08 10:01:59;;;;;;;7.70;6.13;;;3.30;99.90;;;;;;5050338;28;20448;-73
2021/01/08 10:04:30;;;;;;;9.43;6.50;;;3.20;99.90;;;;;;5035042;28;20841;-74
2021/01/08 10:06:57;;;;;;;7.70;5.73;;;3.20;99.90;;;;;;5056771;28;20464;-73
2021/01/08 10:09:23;;;;;;;9.67;6.30;;;3.20;99.90;;;;;;5046621;28;20413;-73
2021/01/08 10:12:01;;;;;;;8.33;5.90;;;3.20;99.90;;;;;;5054430;28;20440;-74
2021/01/08 10:14:30;;;;;;;12.80;6.77;;;3.20;99.90;;;;;;5027833;28;20629;-75
2021/01/08 10:17:14;;;;;;;9.60;6.70;;;3.20;99.90;;;;;;5047105;28;20505;-75
2021/01/08 10:19:41;;;;;;;8.73;5.80;;;3.20;99.90;;;;;;5053518;28;20401;-74
2021/01/08 10:22:07;;;;;;;11.67;6.43;;;3.10;99.90;;;;;;5042255;28;20467;-74
2021/01/08 10:24:33;;;;;;;10.20;6.67;;;3.10;99.90;;;;;;5044800;28;20471;-75
2021/01/08 10:26:59;;;;;;;12.37;7.33;;;3.10;99.90;;;;;;5068535;28;20425;-74
2021/01/08 10:29:30;;;;;;;13.23;7.50;;;3.10;99.90;;;;;;5057658;28;20194;-74
2021/01/08 10:31:57;;;;;;;9.67;6.83;;;3.30;99.90;;;;;;5032398;28;20206;-74
2021/01/08 10:34:24;;;;;;;12.43;6.80;;;3.20;99.90;;;;;;5034657;28;20437;-75
2021/01/08 10:36:49;;;;;;;9.30;6.30;;;3.30;99.90;;;;;;5036684;28;20966;-75
2021/01/08 10:39:15;;;;;;;7.00;5.27;;;3.30;99.90;;;;;;5032239;28;20425;-74
2021/01/08 10:41:40;;;;;;;5.30;4.40;;;3.30;99.90;;;;;;5034089;28;20191;-74
2021/01/08 10:44:06;;;;;;;7.63;5.23;;;3.30;99.90;;;;;;5044929;28;20202;-73
2021/01/08 10:46:32;;;;;;;9.07;5.60;;;3.20;99.90;;;;;;5035847;28;20273;-74
2021/01/08 10:48:57;;;;;;;7.60;5.07;;;3.20;99.90;;;;;;5039382;28;20417;-74
2021/01/08 10:51:27;;;;;;;6.57;5.90;;;3.30;99.90;;;;;;5033390;28;20171;-74
2021/01/08 10:53:53;;;;;;;8.30;5.37;;;3.50;99.90;;;;;;5040344;28;20194;-74
2021/01/08 10:56:27;;;;;;;8.20;5.53;;;3.60;99.90;;;;;;5031975;28;20445;-73
2021/01/08 10:58:52;;;;;;;7.43;5.80;;;3.70;99.90;;;;;;5033158;28;20163;-73
2021/01/08 11:01:18;;;;;;;11.87;6.70;;;3.60;99.90;;;;;;5030859;28;20755;-73
2021/01/08 11:03:43;;;;;;;7.93;5.83;;;3.60;99.90;;;;;;5037825;28;20552;-73
2021/01/08 11:06:16;;;;;;;9.70;6.47;;;3.50;99.90;;;;;;5037452;28;20194;-73
2021/01/08 11:08:42;;;;;;;10.33;6.67;;;3.60;99.90;;;;;;5038267;28;20174;-73
2021/01/08 11:11:07;;;;;;;9.00;6.70;;;3.60;99.90;;;;;;5033432;28;20445;-73
2021/01/08 11:13:33;;;;;;;9.13;6.33;;;3.70;99.90;;;;;;5036919;28;20522;-74
2021/01/08 11:15:58;;;;;;;7.37;5.63;;;3.90;99.90;;;;;;5037853;28;20198;-74
2021/01/08 11:18:25;;;;;;;8.23;5.70;;;3.90;99.90;;;;;;5036777;28;20217;-74
2021/01/08 11:20:50;;;;;;;7.67;5.80;;;3.70;99.90;;;;;;5040398;28;20711;-74
2021/01/08 11:23:16;;;;;;;7.63;5.80;;;3.60;99.90;;;;;;5055207;28;20456;-73
2021/01/08 11:25:42;;;;;;;7.70;5.47;;;3.60;99.90;;;;;;5032752;28;20192;-73
2021/01/08 11:28:08;;;;;;;9.20;6.87;;;3.60;99.90;;;;;;5038680;28;20199;-74
2021/01/08 11:30:33;;;;;;;7.80;6.73;;;3.70;99.90;;;;;;5040748;28;20566;-73
2021/01/08 11:32:59;;;;;;;8.03;5.90;;;3.70;99.90;;;;;;5057767;28;20591;-74
2021/01/08 11:35:25;;;;;;;7.57;6.20;;;3.70;99.90;;;;;;5038796;28;20182;-73
2021/01/08 11:37:52;;;;;;;6.73;5.47;;;3.80;99.90;;;;;;5039382;28;20459;-73
2021/01/08 11:40:17;;;;;;;6.63;5.37;;;3.80;99.90;;;;;;5039428;28;20588;-73
2021/01/08 11:42:43;;;;;;;7.37;5.70;;;3.70;99.90;;;;;;5038956;28;20531;-73
2021/01/08 11:45:09;;;;;;;6.60;5.90;;;3.70;99.90;;;;;;5041257;28;20183;-74
2021/01/08 11:47:35;;;;;;;8.20;6.20;;;3.80;99.90;;;;;;5040438;28;20233;-73
2021/01/08 11:50:02;;;;;;;7.50;5.73;;;3.70;99.90;;;;;;5040388;28;20448;-73
2021/01/08 11:52:38;;;;;;;5.67;5.10;;;3.80;99.90;;;;;;5039547;28;20732;-73
2021/01/08 11:55:05;;;;;;;6.67;5.40;;;3.90;99.90;;;;;;5037555;28;20440;-72
2021/01/08 11:57:31;;;;;;;6.97;5.43;;;3.90;99.90;;;;;;5046911;28;20528;-72
2021/01/08 11:59:56;;;;;;;5.37;4.83;;;3.90;99.90;;;;;;5045214;28;20475;-72
2021/01/08 12:02:22;;;;;;;8.00;6.43;;;4.00;99.90;;;;;;5051532;28;20202;-72
2021/01/08 12:04:48;;;;;;;6.13;5.30;;;4.00;99.90;;;;;;5060669;28;20173;-73
2021/01/08 12:07:14;;;;;;;6.70;5.70;;;4.10;99.90;;;;;;5056099;28;20217;-72
2021/01/08 12:09:40;;;;;;;7.20;5.70;;;4.10;99.90;;;;;;5037777;28;20440;-72
2021/01/08 12:12:06;;;;;;;6.03;5.37;;;4.00;99.90;;;;;;5041422;28;20537;-73
2021/01/08 12:14:32;;;;;;;6.60;4.93;;;3.90;99.90;;;;;;5032823;28;20763;-73
2021/01/08 12:17:09;;;;;;;5.43;4.63;;;3.80;99.90;;;;;;5038869;28;20457;-74
2021/01/08 12:19:35;;;;;;;8.83;5.03;;;3.70;99.90;;;;;;5048652;28;20984;-73
2021/01/08 12:22:01;;;;;;;6.23;5.10;;;3.80;99.90;;;;;;5047492;28;20420;-73
2021/01/08 12:24:27;;;;;;;4.77;4.37;;;3.90;99.90;;;;;;5057756;28;20407;-73
2021/01/08 12:26:56;;;;;;;4.97;4.20;;;4.00;99.90;;;;;;5037597;28;20438;-73
2021/01/08 12:29:22;;;;;;;5.53;4.13;;;4.20;99.90;;;;;;5043173;28;21020;-73
2021/01/08 12:31:48;;;;;;;4.87;4.23;;;4.00;99.90;;;;;;5037970;28;20540;-73
2021/01/08 12:34:14;;;;;;;5.00;4.50;;;4.00;99.90;;;;;;5037397;28;20465;-73
2021/01/08 12:36:40;;;;;;;6.27;4.17;;;3.90;99.90;;;;;;5036421;28;20689;-73
2021/01/08 12:39:05;;;;;;;5.30;4.80;;;4.00;99.90;;;;;;5040712;28;20542;-73
2021/01/08 12:41:32;;;;;;;5.43;4.93;;;4.10;99.90;;;;;;5036840;28;20221;-73
2021/01/08 12:43:58;;;;;;;4.67;4.27;;;4.10;99.90;;;;;;5037403;28;20246;-74
2021/01/08 12:46:24;;;;;;;6.87;4.50;;;4.10;99.90;;;;;;5038672;28;20440;-74
2021/01/08 12:48:49;;;;;;;5.03;4.53;;;4.20;99.90;;;;;;5058550;28;20409;-74
2021/01/08 12:51:16;;;;;;;5.33;4.87;;;4.30;99.90;;;;;;5057252;28;20174;-73
2021/01/08 12:53:42;;;;;;;5.83;5.23;;;4.40;99.90;;;;;;5057943;28;20229;-73
2021/01/08 12:56:08;;;;;;;4.53;4.13;;;4.40;99.90;;;;;;5042869;28;20579;-73